sensor_id;sensor_type;location;lat;lon;timestamp;P1;durP1;ratioP1;P2;durP2;ratioP2
5674;SDS011;2860;54.284;10.158;2023-02-22T00:00:16;20.90;;;7.05;;
5674;SDS011;2860;54.284;10.158;2023-02-22T00:03:01;16.63;;;5.78;;
5674;SDS011;2860;54.284;10.158;2023-02-22T00:05:27;24.00;;;6.80;;
5674;SDS011;2860;54.284;10.158;2023-02-22T00:07:55;19.42;;;6.63;;
5674;SDS011;2860;54.284;10.158;2023-02-22T00:10:21;20.45;;;5.70;;
5674;SDS011;2860;54.284;10.158;2023-02-22T00:12:48;26.65;;;6.85;;
5674;SDS011;2860;54.284;10.158;2023-02-22T00:15:16;11.70;;;5.93;;
5674;SDS011;2860;54.284;10.158;2023-02-22T00:17:42;20.42;;;6.30;;
5674;SDS011;2860;54.284;10.158;2023-02-22T00:20:08;19.08;;;6.75;;
5674;SDS011;2860;54.284;10.158;2023-02-22T00:22:38;14.27;;;5.20;;
5674;SDS011;2860;54.284;10.158;2023-02-22T00:25:07;17.65;;;5.50;;
5674;SDS011;2860;54.284;10.158;2023-02-22T00:27:33;16.83;;;5.30;;
5674;SDS011;2860;54.284;10.158;2023-02-22T00:30:00;14.00;;;5.43;;
5674;SDS011;2860;54.284;10.158;2023-02-22T00:32:26;17.88;;;5.53;;
5674;SDS011;2860;54.284;10.158;2023-02-22T00:34:52;14.13;;;5.45;;
5674;SDS011;2860;54.284;10.158;2023-02-22T00:37:18;19.00;;;5.70;;
5674;SDS011;2860;54.284;10.158;2023-02-22T00:39:47;28.45;;;6.28;;
5674;SDS011;2860;54.284;10.158;2023-02-22T00:42:14;19.90;;;5.95;;
5674;SDS011;2860;54.284;10.158;2023-02-22T00:44:41;14.98;;;5.18;;
5674;SDS011;2860;54.284;10.158;2023-02-22T00:47:07;22.58;;;6.75;;
5674;SDS011;2860;54.284;10.158;2023-02-22T00:49:33;18.83;;;5.88;;
5674;SDS011;2860;54.284;10.158;2023-02-22T00:51:59;18.48;;;6.60;;
5674;SDS011;2860;54.284;10.158;2023-02-22T00:54:25;15.40;;;5.97;;
5674;SDS011;2860;54.284;10.158;2023-02-22T00:56:50;16.08;;;6.00;;
5674;SDS011;2860;54.284;10.158;2023-02-22T00:59:16;21.52;;;6.13;;
5674;SDS011;2860;54.284;10.158;2023-02-22T01:01:42;20.33;;;6.18;;
5674;SDS011;2860;54.284;10.158;2023-02-22T01:04:07;15.45;;;5.50;;
5674;SDS011;2860;54.284;10.158;2023-02-22T01:06:33;18.58;;;6.45;;
5674;SDS011;2860;54.284;10.158;2023-02-22T01:08:59;23.80;;;6.07;;
5674;SDS011;2860;54.284;10.158;2023-02-22T01:11:26;11.25;;;5.63;;
5674;SDS011;2860;54.284;10.158;2023-02-22T01:13:52;16.63;;;4.95;;
5674;SDS011;2860;54.284;10.158;2023-02-22T01:16:19;20.90;;;6.35;;
5674;SDS011;2860;54.284;10.158;2023-02-22T01:18:45;14.10;;;6.63;;
5674;SDS011;2860;54.284;10.158;2023-02-22T01:21:10;13.55;;;5.75;;
5674;SDS011;2860;54.284;10.158;2023-02-22T01:23:36;21.38;;;6.70;;
5674;SDS011;2860;54.284;10.158;2023-02-22T01:26:02;22.42;;;5.72;;
5674;SDS011;2860;54.284;10.158;2023-02-22T01:28:30;18.88;;;6.00;;
5674;SDS011;2860;54.284;10.158;2023-02-22T01:30:56;17.05;;;6.38;;
5674;SDS011;2860;54.284;10.158;2023-02-22T01:33:21;19.52;;;6.35;;
5674;SDS011;2860;54.284;10.158;2023-02-22T01:35:47;13.32;;;6.10;;
5674;SDS011;2860;54.284;10.158;2023-02-22T01:38:14;16.73;;;7.53;;
5674;SDS011;2860;54.284;10.158;2023-02-22T01:40:41;23.73;;;7.30;;
5674;SDS011;2860;54.284;10.158;2023-02-22T01:43:26;23.85;;;6.55;;
5674;SDS011;2860;54.284;10.158;2023-02-22T01:51:31;20.58;;;6.05;;
5674;SDS011;2860;54.284;10.158;2023-02-22T01:56:33;21.25;;;7.72;;
5674;SDS011;2860;54.284;10.158;2023-02-22T01:59:02;24.20;;;7.40;;
5674;SDS011;2860;54.284;10.158;2023-02-22T02:01:31;24.63;;;7.90;;
5674;SDS011;2860;54.284;10.158;2023-02-22T02:03:59;21.58;;;7.20;;
5674;SDS011;2860;54.284;10.158;2023-02-22T02:06:29;10.00;;;6.63;;
5674;SDS011;2860;54.284;10.158;2023-02-22T02:09:18;16.77;;;7.07;;
5674;SDS011;2860;54.284;10.158;2023-02-22T02:11:54;21.75;;;6.95;;
5674;SDS011;2860;54.284;10.158;2023-02-22T02:14:21;19.88;;;6.13;;
5674;SDS011;2860;54.284;10.158;2023-02-22T02:16:48;20.40;;;7.65;;
5674;SDS011;2860;54.284;10.158;2023-02-22T02:27:10;16.92;;;7.00;;
5674;SDS011;2860;54.284;10.158;2023-02-22T02:32:50;22.48;;;7.38;;
5674;SDS011;2860;54.284;10.158;2023-02-22T02:35:31;23.15;;;7.53;;
5674;SDS011;2860;54.284;10.158;2023-02-22T02:40:42;22.83;;;6.72;;
5674;SDS011;2860;54.284;10.158;2023-02-22T02:45:53;19.15;;;8.38;;
5674;SDS011;2860;54.284;10.158;2023-02-22T02:48:24;21.15;;;7.85;;
5674;SDS011;2860;54.284;10.158;2023-02-22T02:50:52;15.63;;;7.20;;
5674;SDS011;2860;54.284;10.158;2023-02-22T02:53:21;19.38;;;7.60;;
5674;SDS011;2860;54.284;10.158;2023-02-22T02:55:51;10.88;;;7.00;;
5674;SDS011;2860;54.284;10.158;2023-02-22T02:58:21;23.92;;;8.73;;
5674;SDS011;2860;54.284;10.158;2023-02-22T03:00:47;16.23;;;9.30;;
5674;SDS011;2860;54.284;10.158;2023-02-22T03:03:21;21.92;;;7.53;;
5674;SDS011;2860;54.284;10.158;2023-02-22T03:06:18;14.85;;;7.72;;
5674;SDS011;2860;54.284;10.158;2023-02-22T03:08:52;14.32;;;7.50;;
5674;SDS011;2860;54.284;10.158;2023-02-22T03:11:31;27.48;;;8.60;;
5674;SDS011;2860;54.284;10.158;2023-02-22T03:14:32;24.25;;;8.80;;
5674;SDS011;2860;54.284;10.158;2023-02-22T03:17:17;18.80;;;8.05;;
5674;SDS011;2860;54.284;10.158;2023-02-22T03:20:13;33.42;;;9.20;;
5674;SDS011;2860;54.284;10.158;2023-02-22T03:22:49;32.42;;;9.85;;
5674;SDS011;2860;54.284;10.158;2023-02-22T03:25:23;18.45;;;8.30;;
5674;SDS011;2860;54.284;10.158;2023-02-22T03:27:58;20.13;;;8.95;;
5674;SDS011;2860;54.284;10.158;2023-02-22T03:33:09;20.35;;;7.68;;
5674;SDS011;2860;54.284;10.158;2023-02-22T03:35:41;17.50;;;7.13;;
5674;SDS011;2860;54.284;10.158;2023-02-22T03:38:12;24.08;;;7.93;;
5674;SDS011;2860;54.284;10.158;2023-02-22T03:40:42;18.02;;;7.47;;
5674;SDS011;2860;54.284;10.158;2023-02-22T03:43:54;21.10;;;7.53;;
5674;SDS011;2860;54.284;10.158;2023-02-22T03:46:03;20.75;;;7.78;;
5674;SDS011;2860;54.284;10.158;2023-02-22T03:48:35;24.70;;;7.50;;
5674;SDS011;2860;54.284;10.158;2023-02-22T03:51:14;27.60;;;8.48;;
5674;SDS011;2860;54.284;10.158;2023-02-22T03:53:41;20.85;;;8.40;;
5674;SDS011;2860;54.284;10.158;2023-02-22T03:56:12;23.33;;;7.90;;
5674;SDS011;2860;54.284;10.158;2023-02-22T03:58:44;21.05;;;7.53;;
5674;SDS011;2860;54.284;10.158;2023-02-22T04:01:14;42.92;;;12.43;;
5674;SDS011;2860;54.284;10.158;2023-02-22T04:03:40;19.40;;;9.30;;
5674;SDS011;2860;54.284;10.158;2023-02-22T04:06:06;16.70;;;8.27;;
5674;SDS011;2860;54.284;10.158;2023-02-22T04:08:32;19.75;;;8.15;;
5674;SDS011;2860;54.284;10.158;2023-02-22T04:10:57;23.38;;;8.20;;
5674;SDS011;2860;54.284;10.158;2023-02-22T04:13:23;18.60;;;8.75;;
5674;SDS011;2860;54.284;10.158;2023-02-22T04:15:48;23.23;;;8.88;;
5674;SDS011;2860;54.284;10.158;2023-02-22T04:18:14;26.23;;;8.57;;
5674;SDS011;2860;54.284;10.158;2023-02-22T04:20:39;19.75;;;8.15;;
5674;SDS011;2860;54.284;10.158;2023-02-22T04:23:05;18.67;;;8.13;;
5674;SDS011;2860;54.284;10.158;2023-02-22T04:25:30;20.30;;;7.93;;
5674;SDS011;2860;54.284;10.158;2023-02-22T04:27:56;19.40;;;7.68;;
5674;SDS011;2860;54.284;10.158;2023-02-22T04:30:22;18.63;;;8.07;;
5674;SDS011;2860;54.284;10.158;2023-02-22T04:32:48;23.58;;;9.88;;
5674;SDS011;2860;54.284;10.158;2023-02-22T04:35:13;21.10;;;8.45;;
5674;SDS011;2860;54.284;10.158;2023-02-22T04:37:39;22.95;;;9.00;;
5674;SDS011;2860;54.284;10.158;2023-02-22T04:40:05;22.38;;;8.32;;
5674;SDS011;2860;54.284;10.158;2023-02-22T04:42:32;21.55;;;8.38;;
5674;SDS011;2860;54.284;10.158;2023-02-22T04:45:01;19.63;;;8.60;;
5674;SDS011;2860;54.284;10.158;2023-02-22T04:47:27;26.17;;;8.68;;
5674;SDS011;2860;54.284;10.158;2023-02-22T04:49:52;16.77;;;8.00;;
5674;SDS011;2860;54.284;10.158;2023-02-22T04:52:18;20.27;;;8.63;;
5674;SDS011;2860;54.284;10.158;2023-02-22T04:54:43;26.40;;;8.25;;
5674;SDS011;2860;54.284;10.158;2023-02-22T04:57:09;18.27;;;8.15;;
5674;SDS011;2860;54.284;10.158;2023-02-22T04:59:34;18.80;;;8.40;;
5674;SDS011;2860;54.284;10.158;2023-02-22T05:02:00;21.48;;;6.88;;
5674;SDS011;2860;54.284;10.158;2023-02-22T05:04:26;18.67;;;7.88;;
5674;SDS011;2860;54.284;10.158;2023-02-22T05:06:51;19.50;;;8.52;;
5674;SDS011;2860;54.284;10.158;2023-02-22T05:09:17;17.23;;;7.25;;
5674;SDS011;2860;54.284;10.158;2023-02-22T05:11:43;21.73;;;8.20;;
5674;SDS011;2860;54.284;10.158;2023-02-22T05:14:08;20.23;;;7.22;;
5674;SDS011;2860;54.284;10.158;2023-02-22T05:16:34;20.63;;;7.78;;
5674;SDS011;2860;54.284;10.158;2023-02-22T05:18:59;16.63;;;7.35;;
5674;SDS011;2860;54.284;10.158;2023-02-22T05:21:25;24.65;;;8.05;;
5674;SDS011;2860;54.284;10.158;2023-02-22T05:23:50;16.30;;;7.68;;
5674;SDS011;2860;54.284;10.158;2023-02-22T05:26:16;18.63;;;7.20;;
5674;SDS011;2860;54.284;10.158;2023-02-22T05:28:42;20.38;;;8.13;;
5674;SDS011;2860;54.284;10.158;2023-02-22T05:31:08;16.00;;;7.95;;
5674;SDS011;2860;54.284;10.158;2023-02-22T05:33:34;24.08;;;9.02;;
5674;SDS011;2860;54.284;10.158;2023-02-22T05:35:59;21.23;;;7.72;;
5674;SDS011;2860;54.284;10.158;2023-02-22T05:38:25;22.27;;;7.72;;
5674;SDS011;2860;54.284;10.158;2023-02-22T05:40:50;23.25;;;8.55;;
5674;SDS011;2860;54.284;10.158;2023-02-22T05:43:16;25.02;;;10.68;;
5674;SDS011;2860;54.284;10.158;2023-02-22T05:45:42;23.48;;;10.00;;
5674;SDS011;2860;54.284;10.158;2023-02-22T05:48:07;19.65;;;8.98;;
5674;SDS011;2860;54.284;10.158;2023-02-22T05:50:33;22.05;;;9.63;;
5674;SDS011;2860;54.284;10.158;2023-02-22T05:52:59;24.20;;;9.10;;
5674;SDS011;2860;54.284;10.158;2023-02-22T05:55:25;39.00;;;10.70;;
5674;SDS011;2860;54.284;10.158;2023-02-22T05:57:51;26.75;;;8.00;;
5674;SDS011;2860;54.284;10.158;2023-02-22T06:00:27;24.02;;;8.68;;
5674;SDS011;2860;54.284;10.158;2023-02-22T06:05:21;36.40;;;8.23;;
5674;SDS011;2860;54.284;10.158;2023-02-22T06:07:47;29.17;;;8.48;;
5674;SDS011;2860;54.284;10.158;2023-02-22T06:10:13;19.27;;;7.85;;
5674;SDS011;2860;54.284;10.158;2023-02-22T06:12:38;30.05;;;8.90;;
5674;SDS011;2860;54.284;10.158;2023-02-22T06:15:04;34.85;;;7.88;;
5674;SDS011;2860;54.284;10.158;2023-02-22T06:17:30;21.00;;;7.30;;
5674;SDS011;2860;54.284;10.158;2023-02-22T06:19:55;18.88;;;6.82;;
5674;SDS011;2860;54.284;10.158;2023-02-22T06:22:21;23.38;;;7.75;;
5674;SDS011;2860;54.284;10.158;2023-02-22T06:24:47;17.25;;;6.70;;
5674;SDS011;2860;54.284;10.158;2023-02-22T06:27:12;31.42;;;7.95;;
5674;SDS011;2860;54.284;10.158;2023-02-22T06:29:38;32.08;;;7.28;;
5674;SDS011;2860;54.284;10.158;2023-02-22T06:32:08;19.10;;;6.53;;
5674;SDS011;2860;54.284;10.158;2023-02-22T06:34:33;26.50;;;7.53;;
5674;SDS011;2860;54.284;10.158;2023-02-22T06:36:59;34.13;;;7.75;;
5674;SDS011;2860;54.284;10.158;2023-02-22T06:39:24;25.90;;;6.82;;
5674;SDS011;2860;54.284;10.158;2023-02-22T06:41:50;25.10;;;7.43;;
5674;SDS011;2860;54.284;10.158;2023-02-22T06:44:16;41.63;;;8.20;;
5674;SDS011;2860;54.284;10.158;2023-02-22T06:46:47;34.92;;;8.00;;
5674;SDS011;2860;54.284;10.158;2023-02-22T06:49:15;26.60;;;8.25;;
5674;SDS011;2860;54.284;10.158;2023-02-22T06:51:41;31.38;;;8.43;;
5674;SDS011;2860;54.284;10.158;2023-02-22T06:54:07;14.20;;;7.15;;
5674;SDS011;2860;54.284;10.158;2023-02-22T06:56:32;28.13;;;8.20;;
5674;SDS011;2860;54.284;10.158;2023-02-22T06:58:58;26.48;;;8.20;;
5674;SDS011;2860;54.284;10.158;2023-02-22T07:01:25;28.57;;;9.67;;
5674;SDS011;2860;54.284;10.158;2023-02-22T07:03:51;31.35;;;9.68;;
5674;SDS011;2860;54.284;10.158;2023-02-22T07:06:17;18.85;;;8.05;;
5674;SDS011;2860;54.284;10.158;2023-02-22T07:08:43;23.90;;;6.85;;
5674;SDS011;2860;54.284;10.158;2023-02-22T07:11:08;25.88;;;7.30;;
5674;SDS011;2860;54.284;10.158;2023-02-22T07:13:34;21.38;;;6.82;;
5674;SDS011;2860;54.284;10.158;2023-02-22T07:15:59;26.75;;;7.53;;
5674;SDS011;2860;54.284;10.158;2023-02-22T07:18:25;23.48;;;7.00;;
5674;SDS011;2860;54.284;10.158;2023-02-22T07:20:50;21.58;;;6.60;;
5674;SDS011;2860;54.284;10.158;2023-02-22T07:23:16;29.20;;;6.88;;
5674;SDS011;2860;54.284;10.158;2023-02-22T07:25:42;16.50;;;6.90;;
5674;SDS011;2860;54.284;10.158;2023-02-22T07:28:08;19.38;;;6.93;;
5674;SDS011;2860;54.284;10.158;2023-02-22T07:30:35;24.02;;;7.25;;
5674;SDS011;2860;54.284;10.158;2023-02-22T07:33:02;27.17;;;7.68;;
5674;SDS011;2860;54.284;10.158;2023-02-22T07:35:34;28.38;;;9.10;;
5674;SDS011;2860;54.284;10.158;2023-02-22T07:38:07;39.35;;;9.25;;
5674;SDS011;2860;54.284;10.158;2023-02-22T07:40:34;20.30;;;8.02;;
5674;SDS011;2860;54.284;10.158;2023-02-22T07:45:39;25.45;;;8.98;;
5674;SDS011;2860;54.284;10.158;2023-02-22T07:48:04;24.92;;;8.73;;
5674;SDS011;2860;54.284;10.158;2023-02-22T07:50:31;24.20;;;8.80;;
5674;SDS011;2860;54.284;10.158;2023-02-22T07:52:59;29.85;;;8.88;;
5674;SDS011;2860;54.284;10.158;2023-02-22T07:55:27;25.45;;;8.30;;
5674;SDS011;2860;54.284;10.158;2023-02-22T07:57:57;30.38;;;10.02;;
5674;SDS011;2860;54.284;10.158;2023-02-22T08:00:31;21.30;;;8.65;;
5674;SDS011;2860;54.284;10.158;2023-02-22T08:03:01;29.35;;;8.30;;
5674;SDS011;2860;54.284;10.158;2023-02-22T08:05:27;26.60;;;8.77;;
5674;SDS011;2860;54.284;10.158;2023-02-22T08:07:54;32.28;;;9.00;;
5674;SDS011;2860;54.284;10.158;2023-02-22T08:10:20;20.38;;;8.38;;
5674;SDS011;2860;54.284;10.158;2023-02-22T08:12:48;21.08;;;8.88;;
5674;SDS011;2860;54.284;10.158;2023-02-22T08:15:15;17.65;;;8.48;;
5674;SDS011;2860;54.284;10.158;2023-02-22T08:17:42;27.17;;;8.95;;
5674;SDS011;2860;54.284;10.158;2023-02-22T08:20:07;27.15;;;8.93;;
5674;SDS011;2860;54.284;10.158;2023-02-22T08:22:33;21.10;;;9.32;;
5674;SDS011;2860;54.284;10.158;2023-02-22T08:24:58;21.77;;;9.52;;
5674;SDS011;2860;54.284;10.158;2023-02-22T08:27:25;17.48;;;7.45;;
5674;SDS011;2860;54.284;10.158;2023-02-22T08:29:52;22.23;;;7.93;;
5674;SDS011;2860;54.284;10.158;2023-02-22T08:32:18;23.10;;;7.32;;
5674;SDS011;2860;54.284;10.158;2023-02-22T08:34:44;16.90;;;7.47;;
5674;SDS011;2860;54.284;10.158;2023-02-22T08:37:10;17.85;;;8.07;;
5674;SDS011;2860;54.284;10.158;2023-02-22T08:39:35;22.00;;;7.47;;
5674;SDS011;2860;54.284;10.158;2023-02-22T08:42:01;17.55;;;8.68;;
5674;SDS011;2860;54.284;10.158;2023-02-22T08:44:26;15.15;;;6.68;;
5674;SDS011;2860;54.284;10.158;2023-02-22T08:46:52;11.43;;;6.20;;
5674;SDS011;2860;54.284;10.158;2023-02-22T08:49:19;16.63;;;8.30;;
5674;SDS011;2860;54.284;10.158;2023-02-22T08:51:44;18.38;;;6.72;;
5674;SDS011;2860;54.284;10.158;2023-02-22T08:54:10;17.58;;;5.93;;
5674;SDS011;2860;54.284;10.158;2023-02-22T08:56:35;20.63;;;6.50;;
5674;SDS011;2860;54.284;10.158;2023-02-22T08:59:01;16.70;;;7.47;;
5674;SDS011;2860;54.284;10.158;2023-02-22T09:01:27;26.83;;;7.97;;
5674;SDS011;2860;54.284;10.158;2023-02-22T09:03:53;20.45;;;6.53;;
5674;SDS011;2860;54.284;10.158;2023-02-22T09:06:20;16.45;;;6.35;;
5674;SDS011;2860;54.284;10.158;2023-02-22T09:08:46;16.73;;;7.70;;
5674;SDS011;2860;54.284;10.158;2023-02-22T09:11:12;15.77;;;6.45;;
5674;SDS011;2860;54.284;10.158;2023-02-22T09:13:38;11.88;;;6.65;;
5674;SDS011;2860;54.284;10.158;2023-02-22T09:16:03;17.35;;;5.43;;
5674;SDS011;2860;54.284;10.158;2023-02-22T09:18:29;15.48;;;6.30;;
5674;SDS011;2860;54.284;10.158;2023-02-22T09:20:54;17.50;;;7.63;;
5674;SDS011;2860;54.284;10.158;2023-02-22T09:23:20;14.32;;;6.35;;
5674;SDS011;2860;54.284;10.158;2023-02-22T09:25:46;9.43;;;5.90;;
5674;SDS011;2860;54.284;10.158;2023-02-22T09:28:12;12.50;;;6.45;;
5674;SDS011;2860;54.284;10.158;2023-02-22T09:30:38;21.10;;;6.97;;
5674;SDS011;2860;54.284;10.158;2023-02-22T09:35:38;16.88;;;6.50;;
5674;SDS011;2860;54.284;10.158;2023-02-22T09:38:10;14.00;;;6.28;;
5674;SDS011;2860;54.284;10.158;2023-02-22T09:40:41;14.55;;;6.82;;
5674;SDS011;2860;54.284;10.158;2023-02-22T09:46:12;17.85;;;7.38;;
5674;SDS011;2860;54.284;10.158;2023-02-22T09:48:49;20.80;;;6.43;;
5674;SDS011;2860;54.284;10.158;2023-02-22T09:51:30;13.38;;;6.13;;
5674;SDS011;2860;54.284;10.158;2023-02-22T09:54:01;15.10;;;6.78;;
5674;SDS011;2860;54.284;10.158;2023-02-22T09:56:30;13.32;;;6.25;;
5674;SDS011;2860;54.284;10.158;2023-02-22T09:59:01;14.70;;;7.32;;
5674;SDS011;2860;54.284;10.158;2023-02-22T10:01:38;12.07;;;5.97;;
5674;SDS011;2860;54.284;10.158;2023-02-22T10:04:12;12.40;;;6.60;;
5674;SDS011;2860;54.284;10.158;2023-02-22T10:09:40;9.63;;;6.47;;
5674;SDS011;2860;54.284;10.158;2023-02-22T10:17:46;10.77;;;6.20;;
5674;SDS011;2860;54.284;10.158;2023-02-22T10:25:51;8.98;;;5.68;;
5674;SDS011;2860;54.284;10.158;2023-02-22T10:28:24;9.95;;;6.10;;
5674;SDS011;2860;54.284;10.158;2023-02-22T10:30:57;14.57;;;6.30;;
5674;SDS011;2860;54.284;10.158;2023-02-22T10:33:29;6.05;;;5.47;;
5674;SDS011;2860;54.284;10.158;2023-02-22T10:36:00;10.13;;;7.40;;
5674;SDS011;2860;54.284;10.158;2023-02-22T10:38:33;10.13;;;6.38;;
5674;SDS011;2860;54.284;10.158;2023-02-22T10:43:35;11.73;;;5.88;;
5674;SDS011;2860;54.284;10.158;2023-02-22T10:46:02;9.27;;;6.38;;
5674;SDS011;2860;54.284;10.158;2023-02-22T10:48:31;9.30;;;6.50;;
5674;SDS011;2860;54.284;10.158;2023-02-22T10:51:00;21.35;;;7.57;;
5674;SDS011;2860;54.284;10.158;2023-02-22T10:53:29;14.82;;;7.03;;
5674;SDS011;2860;54.284;10.158;2023-02-22T10:58:43;12.20;;;6.85;;
5674;SDS011;2860;54.284;10.158;2023-02-22T11:06:33;13.05;;;6.65;;
5674;SDS011;2860;54.284;10.158;2023-02-22T11:11:40;9.30;;;6.47;;
5674;SDS011;2860;54.284;10.158;2023-02-22T11:14:10;7.95;;;7.15;;
5674;SDS011;2860;54.284;10.158;2023-02-22T11:16:50;11.05;;;7.00;;
5674;SDS011;2860;54.284;10.158;2023-02-22T11:19:21;7.82;;;6.32;;
5674;SDS011;2860;54.284;10.158;2023-02-22T11:22:09;6.38;;;4.72;;
5674;SDS011;2860;54.284;10.158;2023-02-22T11:25:16;9.15;;;7.05;;
5674;SDS011;2860;54.284;10.158;2023-02-22T11:27:41;10.70;;;6.78;;
5674;SDS011;2860;54.284;10.158;2023-02-22T11:35:50;11.02;;;7.70;;
5674;SDS011;2860;54.284;10.158;2023-02-22T11:38:20;15.05;;;6.75;;
5674;SDS011;2860;54.284;10.158;2023-02-22T11:41:03;9.88;;;7.40;;
5674;SDS011;2860;54.284;10.158;2023-02-22T11:43:46;10.80;;;8.18;;
5674;SDS011;2860;54.284;10.158;2023-02-22T11:46:15;8.90;;;7.15;;
5674;SDS011;2860;54.284;10.158;2023-02-22T11:48:44;8.73;;;6.43;;
5674;SDS011;2860;54.284;10.158;2023-02-22T11:51:23;12.45;;;7.63;;
5674;SDS011;2860;54.284;10.158;2023-02-22T11:54:05;17.27;;;8.00;;
5674;SDS011;2860;54.284;10.158;2023-02-22T11:56:52;11.73;;;7.47;;
5674;SDS011;2860;54.284;10.158;2023-02-22T11:59:54;12.40;;;7.93;;
5674;SDS011;2860;54.284;10.158;2023-02-22T12:02:28;12.10;;;7.38;;
5674;SDS011;2860;54.284;10.158;2023-02-22T12:07:41;11.05;;;8.27;;
5674;SDS011;2860;54.284;10.158;2023-02-22T12:10:18;11.52;;;7.47;;
5674;SDS011;2860;54.284;10.158;2023-02-22T12:18:20;10.55;;;7.82;;
5674;SDS011;2860;54.284;10.158;2023-02-22T12:20:57;12.85;;;8.90;;
5674;SDS011;2860;54.284;10.158;2023-02-22T12:26:19;14.68;;;8.15;;
5674;SDS011;2860;54.284;10.158;2023-02-22T12:28:55;15.25;;;8.13;;
5674;SDS011;2860;54.284;10.158;2023-02-22T12:31:38;12.10;;;9.15;;
5674;SDS011;2860;54.284;10.158;2023-02-22T12:36:52;11.25;;;8.05;;
5674;SDS011;2860;54.284;10.158;2023-02-22T12:41:57;18.17;;;9.30;;
5674;SDS011;2860;54.284;10.158;2023-02-22T12:44:29;13.32;;;8.23;;
5674;SDS011;2860;54.284;10.158;2023-02-22T12:46:59;13.55;;;6.90;;
5674;SDS011;2860;54.284;10.158;2023-02-22T12:54:55;9.07;;;7.93;;
5674;SDS011;2860;54.284;10.158;2023-02-22T12:57:39;14.75;;;8.52;;
5674;SDS011;2860;54.284;10.158;2023-02-22T13:00:16;15.13;;;7.93;;
5674;SDS011;2860;54.284;10.158;2023-02-22T13:02:57;12.30;;;7.88;;
5674;SDS011;2860;54.284;10.158;2023-02-22T13:05:35;8.13;;;6.20;;
5674;SDS011;2860;54.284;10.158;2023-02-22T13:10:59;8.40;;;7.55;;
5674;SDS011;2860;54.284;10.158;2023-02-22T13:16:25;12.80;;;7.22;;
5674;SDS011;2860;54.284;10.158;2023-02-22T13:21:56;9.25;;;6.32;;
5674;SDS011;2860;54.284;10.158;2023-02-22T13:27:21;9.20;;;6.35;;
5674;SDS011;2860;54.284;10.158;2023-02-22T13:29:59;15.43;;;6.55;;
5674;SDS011;2860;54.284;10.158;2023-02-22T13:35:01;12.25;;;7.75;;
5674;SDS011;2860;54.284;10.158;2023-02-22T13:40:53;7.78;;;6.53;;
5674;SDS011;2860;54.284;10.158;2023-02-22T13:49:10;9.27;;;5.88;;
5674;SDS011;2860;54.284;10.158;2023-02-22T13:51:44;8.43;;;5.00;;
5674;SDS011;2860;54.284;10.158;2023-02-22T13:57:17;8.48;;;5.05;;
5674;SDS011;2860;54.284;10.158;2023-02-22T14:00:01;10.63;;;5.72;;
5674;SDS011;2860;54.284;10.158;2023-02-22T14:08:05;7.38;;;4.32;;
5674;SDS011;2860;54.284;10.158;2023-02-22T14:10:42;9.73;;;5.88;;
5674;SDS011;2860;54.284;10.158;2023-02-22T14:13:15;11.70;;;5.25;;
5674;SDS011;2860;54.284;10.158;2023-02-22T14:18:35;8.85;;;5.65;;
5674;SDS011;2860;54.284;10.158;2023-02-22T14:21:20;7.95;;;4.28;;
5674;SDS011;2860;54.284;10.158;2023-02-22T14:23:53;6.82;;;5.28;;
5674;SDS011;2860;54.284;10.158;2023-02-22T14:26:30;11.07;;;5.97;;
5674;SDS011;2860;54.284;10.158;2023-02-22T14:31:27;5.18;;;4.72;;
5674;SDS011;2860;54.284;10.158;2023-02-22T14:36:33;9.20;;;4.63;;
5674;SDS011;2860;54.284;10.158;2023-02-22T14:39:13;7.68;;;4.43;;
5674;SDS011;2860;54.284;10.158;2023-02-22T14:41:41;14.07;;;6.05;;
5674;SDS011;2860;54.284;10.158;2023-02-22T14:44:12;12.10;;;5.22;;
5674;SDS011;2860;54.284;10.158;2023-02-22T14:46:44;5.50;;;4.95;;
5674;SDS011;2860;54.284;10.158;2023-02-22T14:49:13;8.35;;;5.05;;
5674;SDS011;2860;54.284;10.158;2023-02-22T14:51:48;11.70;;;6.65;;
5674;SDS011;2860;54.284;10.158;2023-02-22T14:54:20;9.77;;;5.28;;
5674;SDS011;2860;54.284;10.158;2023-02-22T14:56:58;7.43;;;5.20;;
5674;SDS011;2860;54.284;10.158;2023-02-22T15:02:44;5.28;;;4.78;;
5674;SDS011;2860;54.284;10.158;2023-02-22T15:05:12;8.05;;;5.20;;
5674;SDS011;2860;54.284;10.158;2023-02-22T15:07:47;6.45;;;5.32;;
5674;SDS011;2860;54.284;10.158;2023-02-22T15:10:18;7.07;;;5.43;;
5674;SDS011;2860;54.284;10.158;2023-02-22T15:12:57;13.80;;;5.97;;
5674;SDS011;2860;54.284;10.158;2023-02-22T15:15:47;8.65;;;5.00;;
5674;SDS011;2860;54.284;10.158;2023-02-22T15:18:22;8.65;;;5.30;;
5674;SDS011;2860;54.284;10.158;2023-02-22T15:21:11;6.15;;;5.20;;
5674;SDS011;2860;54.284;10.158;2023-02-22T15:23:43;9.23;;;5.72;;
5674;SDS011;2860;54.284;10.158;2023-02-22T15:29:01;7.20;;;5.45;;
5674;SDS011;2860;54.284;10.158;2023-02-22T15:31:34;8.30;;;5.45;;
5674;SDS011;2860;54.284;10.158;2023-02-22T15:34:16;11.25;;;5.82;;
5674;SDS011;2860;54.284;10.158;2023-02-22T15:36:46;5.90;;;4.57;;
5674;SDS011;2860;54.284;10.158;2023-02-22T15:39:19;10.50;;;5.15;;
5674;SDS011;2860;54.284;10.158;2023-02-22T15:42:10;7.20;;;5.82;;
5674;SDS011;2860;54.284;10.158;2023-02-22T15:44:43;10.07;;;4.95;;
5674;SDS011;2860;54.284;10.158;2023-02-22T15:47:17;11.40;;;5.55;;
5674;SDS011;2860;54.284;10.158;2023-02-22T15:49:44;8.50;;;4.45;;
5674;SDS011;2860;54.284;10.158;2023-02-22T15:52:30;12.05;;;5.32;;
5674;SDS011;2860;54.284;10.158;2023-02-22T15:54:55;12.30;;;6.10;;
5674;SDS011;2860;54.284;10.158;2023-02-22T15:57:21;6.55;;;5.10;;
5674;SDS011;2860;54.284;10.158;2023-02-22T15:59:51;7.25;;;4.85;;
5674;SDS011;2860;54.284;10.158;2023-02-22T16:02:19;9.07;;;5.75;;
5674;SDS011;2860;54.284;10.158;2023-02-22T16:04:57;10.90;;;4.60;;
5674;SDS011;2860;54.284;10.158;2023-02-22T16:07:25;14.18;;;5.65;;
5674;SDS011;2860;54.284;10.158;2023-02-22T16:09:51;6.05;;;4.88;;
5674;SDS011;2860;54.284;10.158;2023-02-22T16:14:44;8.70;;;4.25;;
5674;SDS011;2860;54.284;10.158;2023-02-22T16:22:41;7.35;;;4.75;;
5674;SDS011;2860;54.284;10.158;2023-02-22T16:27:49;7.75;;;5.68;;
5674;SDS011;2860;54.284;10.158;2023-02-22T16:32:48;12.38;;;5.18;;
5674;SDS011;2860;54.284;10.158;2023-02-22T16:35:15;9.02;;;5.15;;
5674;SDS011;2860;54.284;10.158;2023-02-22T16:37:47;9.05;;;5.22;;
5674;SDS011;2860;54.284;10.158;2023-02-22T16:40:21;16.38;;;6.13;;
5674;SDS011;2860;54.284;10.158;2023-02-22T16:42:49;15.93;;;5.93;;
5674;SDS011;2860;54.284;10.158;2023-02-22T16:45:18;11.93;;;5.68;;
5674;SDS011;2860;54.284;10.158;2023-02-22T16:47:45;16.00;;;6.28;;
5674;SDS011;2860;54.284;10.158;2023-02-22T16:50:12;11.65;;;5.45;;
5674;SDS011;2860;54.284;10.158;2023-02-22T16:52:38;12.48;;;6.15;;
5674;SDS011;2860;54.284;10.158;2023-02-22T16:55:05;7.43;;;5.03;;
5674;SDS011;2860;54.284;10.158;2023-02-22T16:57:35;6.72;;;4.88;;
5674;SDS011;2860;54.284;10.158;2023-02-22T17:00:02;16.45;;;6.68;;
5674;SDS011;2860;54.284;10.158;2023-02-22T17:02:31;10.63;;;5.15;;
5674;SDS011;2860;54.284;10.158;2023-02-22T17:04:57;10.00;;;5.07;;
5674;SDS011;2860;54.284;10.158;2023-02-22T17:07:23;15.82;;;5.05;;
5674;SDS011;2860;54.284;10.158;2023-02-22T17:09:53;8.90;;;4.50;;
5674;SDS011;2860;54.284;10.158;2023-02-22T17:12:22;13.75;;;5.88;;
5674;SDS011;2860;54.284;10.158;2023-02-22T17:14:48;9.05;;;5.28;;
5674;SDS011;2860;54.284;10.158;2023-02-22T17:17:14;17.13;;;4.45;;
5674;SDS011;2860;54.284;10.158;2023-02-22T17:19:40;9.48;;;4.32;;
5674;SDS011;2860;54.284;10.158;2023-02-22T17:22:06;16.58;;;5.00;;
5674;SDS011;2860;54.284;10.158;2023-02-22T17:24:33;14.80;;;5.72;;
5674;SDS011;2860;54.284;10.158;2023-02-22T17:27:00;12.35;;;4.25;;
5674;SDS011;2860;54.284;10.158;2023-02-22T17:29:26;7.03;;;3.70;;
5674;SDS011;2860;54.284;10.158;2023-02-22T17:31:52;7.25;;;4.07;;
5674;SDS011;2860;54.284;10.158;2023-02-22T17:34:18;9.90;;;3.83;;
5674;SDS011;2860;54.284;10.158;2023-02-22T17:36:43;7.32;;;3.72;;